Time;durP1;ratioP1;P1;durP2;ratioP2;P2;SDS_P1;SDS_P2;PMS_P1;PMS_P2;Temp;Humidity;BMP_temperature;BMP_pressure;BME280_temperature;BME280_humidity;BME280_pressure;Samples;Min_cycle;Max_cycle;Signal;HPM_P1;HPM_P2
2022/07/21 06:44:59;;;;;;;6.82;2.83;;;;;;;28.01;43.98;99908.16;4898888;29;20400;-83
2022/07/21 06:47:25;;;;;;;8.70;3.25;;;;;;;28.00;43.80;99911.81;4900225;29;20051;-83
2022/07/21 06:49:51;;;;;;;5.90;2.83;;;;;;;28.01;43.84;99908.16;4883927;29;20036;-83
2022/07/21 06:52:16;;;;;;;7.88;2.97;;;;;;;27.99;44.02;99904.75;4886546;29;20458;-84
2022/07/21 06:54:43;;;;;;;6.53;2.83;;;;;;;28.01;43.98;99913.50;4904708;29;20028;-82
2022/07/21 06:57:08;;;;;;;7.93;3.10;;;;;;;28.07;43.88;99907.63;4902376;29;20078;-82
2022/07/21 06:59:34;;;;;;;6.35;2.88;;;;;;;28.09;43.98;99911.03;4901653;29;20060;-83
2022/07/21 07:02:00;;;;;;;9.60;3.10;;;;;;;28.13;44.08;99900.91;4883735;29;20481;-83
2022/07/21 07:04:26;;;;;;;9.55;3.60;;;;;;;28.14;43.96;99903.44;4900127;29;20119;-85
2022/07/21 07:06:53;;;;;;;9.65;3.42;;;;;;;28.17;44.00;99917.59;4883696;29;20028;-83
2022/07/21 07:09:19;;;;;;;9.52;3.55;;;;;;;28.19;43.62;99899.53;4883701;29;20042;-85
2022/07/21 07:11:46;;;;;;;11.38;4.80;;;;;;;28.22;43.98;99904.66;4883711;29;20356;-83
2022/07/21 07:14:13;;;;;;;9.07;3.80;;;;;;;28.21;43.97;99902.91;4884070;29;20065;-81
2022/07/21 07:16:39;;;;;;;10.35;3.70;;;;;;;28.23;43.72;99901.00;4900638;29;20036;-81
2022/07/21 07:19:05;;;;;;;7.18;3.72;;;;;;;28.25;43.59;99899.91;4884060;29;20100;-82
2022/07/21 07:21:31;;;;;;;9.10;3.28;;;;;;;28.29;44.00;99900.47;4900685;29;20522;-83
2022/07/21 07:23:57;;;;;;;8.27;2.95;;;;;;;28.29;43.65;99895.13;4883961;29;20032;-82
2022/07/21 07:26:22;;;;;;;9.52;3.15;;;;;;;28.33;43.94;99891.16;4902155;29;20037;-81
2022/07/21 07:28:48;;;;;;;6.28;3.10;;;;;;;28.34;43.42;99887.53;4900366;29;20032;-81
2022/07/21 07:31:14;;;;;;;6.57;2.95;;;;;;;28.37;43.65;99892.59;4900552;29;20033;-83
2022/07/21 07:33:39;;;;;;;11.20;3.28;;;;;;;28.39;43.69;99890.63;4888029;29;20083;-80
2022/07/21 07:36:06;;;;;;;7.18;2.97;;;;;;;28.43;43.56;99890.38;4903828;29;20055;-82
2022/07/21 07:38:32;;;;;;;6.30;2.75;;;;;;;28.47;43.30;99894.50;4884567;29;20470;-80
2022/07/21 12:07:57;;;;;;;46.60;9.37;;;;;;;30.76;40.66;99702.44;4975490;23;20052;-86
2022/07/21 12:10:27;;;;;;;37.35;9.48;;;;;;;30.78;40.67;99688.81;4900016;29;20269;-84
2022/07/21 12:13:13;;;;;;;41.72;8.00;;;;;;;30.80;40.17;99687.66;4884999;29;20063;-85
2022/07/21 12:15:41;;;;;;;43.35;8.20;;;;;;;30.84;40.56;99673.91;4886995;29;20415;-86
2022/07/21 12:18:25;;;;;;;31.63;7.90;;;;;;;30.86;39.65;99666.50;4904431;29;20036;-85
2022/07/21 12:21:01;;;;;;;36.90;7.53;;;;;;;30.88;40.17;99662.66;4901372;29;20454;-83
2022/07/21 12:23:31;;;;;;;33.22;7.38;;;;;;;30.91;40.53;99672.28;4889510;29;20044;-84
2022/07/21 12:26:02;;;;;;;44.63;8.43;;;;;;;30.93;40.01;99662.19;4904323;29;20035;-85
2022/07/21 12:28:45;;;;;;;40.03;8.45;;;;;;;30.95;39.94;99662.88;4886354;29;20020;-84
2022/07/21 12:31:23;;;;;;;38.97;8.00;;;;;;;30.97;40.15;99662.75;4907550;29;20032;-86
2022/07/21 12:33:52;;;;;;;29.60;7.63;;;;;;;30.98;40.46;99654.47;4894883;29;20032;-85
2022/07/21 12:36:20;;;;;;;25.27;6.45;;;;;;;31.00;39.93;99655.19;4892892;29;20084;-84
2022/07/21 12:38:50;;;;;;;28.77;6.43;;;;;;;31.02;40.28;99658.56;4924801;29;20028;-85
2022/07/21 12:41:21;;;;;;;25.80;7.13;;;;;;;31.04;40.02;99650.34;4896838;29;20406;-84
2022/07/21 12:44:01;;;;;;;23.98;6.30;;;;;;;31.05;39.85;99642.06;4919262;29;20024;-84
2022/07/21 12:46:39;;;;;;;24.95;6.47;;;;;;;31.07;39.48;99634.69;4900365;29;20088;-85
2022/07/21 12:49:10;;;;;;;30.10;7.03;;;;;;;31.11;40.28;99639.75;4910448;29;20032;-85
2022/07/21 12:51:37;;;;;;;27.42;7.47;;;;;;;31.13;40.15;99629.69;4904191;29;20454;-84
2022/07/21 12:54:05;;;;;;;37.40;8.30;;;;;;;31.15;40.31;99633.06;4910194;29;20028;-83
2022/07/21 12:56:34;;;;;;;26.33;6.88;;;;;;;31.15;40.17;99625.84;4915015;29;20032;-84
2022/07/21 12:59:14;;;;;;;21.10;6.22;;;;;;;31.17;39.87;99623.81;4904416;29;20517;-84
2022/07/21 13:01:39;;;;;;;22.58;6.47;;;;;;;31.19;40.00;99620.97;4921676;29;20027;-86
2022/07/21 13:04:05;;;;;;;28.83;7.78;;;;;;;31.22;40.29;99626.03;4904613;29;20059;-85
2022/07/21 13:06:31;;;;;;;21.90;6.35;;;;;;;31.25;40.21;99628.44;4904123;29;20084;-83
2022/07/21 13:08:58;;;;;;;26.05;6.97;;;;;;;31.26;40.10;99618.47;4921694;29;20166;-84
2022/07/21 13:11:42;;;;;;;21.05;6.07;;;;;;;31.28;39.88;99622.72;4904471;29;20032;-84
2022/07/21 13:14:08;;;;;;;22.55;7.00;;;;;;;31.30;40.02;99620.75;4904278;29;20533;-86
2022/07/21 13:16:35;;;;;;;17.92;6.53;;;;;;;31.32;40.08;99609.78;4920938;29;20039;-86
2022/07/21 13:19:01;;;;;;;21.13;6.60;;;;;;;31.34;40.26;99608.63;4904256;29;20119;-84
2022/07/21 13:21:26;;;;;;;19.15;6.05;;;;;;;31.35;40.07;99612.19;4903942;29;20107;-84
2022/07/21 13:23:52;;;;;;;15.70;6.40;;;;;;;31.38;40.12;99609.19;4903398;29;20028;-84
2022/07/21 13:26:17;;;;;;;22.33;6.20;;;;;;;31.41;40.06;99619.63;4926653;29;20048;-84
2022/07/21 13:28:44;;;;;;;15.02;5.57;;;;;;;31.42;40.20;99613.22;4910151;29;20032;-85
2022/07/21 13:31:10;;;;;;;15.25;5.13;;;;;;;31.45;39.96;99614.75;4905580;29;20028;-85
2022/07/21 13:33:38;;;;;;;18.17;5.93;;;;;;;31.47;39.91;99610.06;4904098;29;20504;-84
2022/07/21 13:36:06;;;;;;;17.50;5.53;;;;;;;31.50;40.05;99615.13;4904096;29;20426;-85
2022/07/21 13:38:31;;;;;;;15.15;5.75;;;;;;;31.52;40.06;99610.41;4904092;29;20038;-87
2022/07/21 13:40:58;;;;;;;20.23;6.28;;;;;;;31.53;39.78;99604.03;4904212;29;20028;-85
2022/07/21 13:43:23;;;;;;;12.80;5.70;;;;;;;31.55;39.91;99604.72;4903811;29;20048;-85
2022/07/21 13:46:01;;;;;;;14.20;5.05;;;;;;;31.57;39.90;99600.00;4903970;29;20060;-85
2022/07/21 13:48:33;;;;;;;20.17;6.05;;;;;;;31.59;39.87;99600.69;4920381;29;20377;-85
2022/07/21 13:50:58;;;;;;;12.63;5.70;;;;;;;31.60;39.85;99586.19;4903500;29;20032;-86
2022/07/21 13:53:24;;;;;;;13.57;5.55;;;;;;;31.61;39.72;99593.28;4903693;29;20051;-85
2022/07/21 13:55:53;;;;;;;14.10;5.55;;;;;;;31.65;39.64;99587.56;4920743;29;20410;-86
2022/07/21 13:58:18;;;;;;;18.30;5.88;;;;;;;31.68;39.95;99589.94;4904593;29;20028;-85
2022/07/21 15:45:19;;;;;;;6.15;4.70;;;;;;;32.26;38.89;99460.59;5727331;23;20085;-89
2022/07/21 15:47:47;;;;;;;8.23;4.65;;;;;;;32.28;39.08;99454.00;4864987;29;20048;-87
2022/07/21 15:50:13;;;;;;;7.38;4.75;;;;;;;32.29;38.94;99449.44;4864916;29;20420;-86
2022/07/21 15:52:40;;;;;;;7.57;4.53;;;;;;;32.29;38.96;99452.13;4898822;29;20036;-92
2022/07/21 15:55:08;;;;;;;7.20;4.55;;;;;;;32.29;38.94;99444.03;4887228;29;20077;-93
2022/07/21 15:57:35;;;;;;;8.40;4.57;;;;;;;32.31;38.97;99441.19;4870953;29;20073;-87
2022/07/21 16:00:01;;;;;;;9.38;4.63;;;;;;;32.32;39.18;99449.09;4865065;29;20029;-87
2022/07/21 16:02:27;;;;;;;8.40;5.35;;;;;;;32.32;39.14;99443.72;4895953;29;20037;-91
2022/07/21 16:04:53;;;;;;;7.60;4.72;;;;;;;32.33;38.81;99444.56;4866276;29;20036;-87
2022/07/21 16:07:19;;;;;;;6.90;4.50;;;;;;;32.35;38.79;99442.53;4882341;29;20033;-89
2022/07/21 16:09:45;;;;;;;7.65;4.10;;;;;;;32.35;38.96;99443.34;4866478;29;20028;-88
2022/07/21 16:12:12;;;;;;;7.85;4.90;;;;;;;32.36;38.78;99431.56;4865463;29;20035;-91
2022/07/21 16:14:41;;;;;;;6.88;4.88;;;;;;;32.38;38.78;99442.19;4866896;29;20098;-89
2022/07/21 16:17:09;;;;;;;6.15;4.93;;;;;;;32.38;39.05;99434.94;4900284;29;20025;-89
2022/07/21 16:19:35;;;;;;;6.22;4.32;;;;;;;32.39;38.85;99438.50;4868579;29;20036;-88
